Tortola's Pride — HO-3796 — position and weather

sailwx.info

Track history (hours):
 
Tides and Currents Weather Stations Pressure Air Temp Water Temp Dewpoint Dewpoint Depression Visibility Wind Speed Wind Dir Waves Ship Positions

Tortola's Pride

Last reported at 2014-Dec-18 14:07 UTC. Time now 2014-Dec-19 01:35 UTC.
Position N 18°25' W 064°36'.

Length 49 m; draft 2.8 m.

Type: Cargo ship. MMSI: 355921000.

Date/timePositionNaut miles runAvg speedWind from/ knotsBaromVisibWave heightAir tempDewpointWater temp
2014-Dec-18 14:07N 18°25' W 064°36'5 8.6
2014-Dec-18 13:33N 18°23' W 064°41'9 9.1
2014-Dec-18 12:34N 18°24' W 064°50'7 0.3
2014-Dec-17 12:20N 18°18' W 064°54'7 9.1
2014-Dec-17 11:34N 18°21' W 064°47'9 9.1
2014-Dec-17 10:33N 18°23' W 064°38'2 0.1
2014-Dec-16 07:33N 18°24' W 064°36'9 8.8
2014-Dec-16 06:34N 18°23' W 064°45'9 9.3
2014-Dec-16 05:34N 18°26' W 064°55'8 0.2
2014-Dec-14 13:33N 18°19' W 064°50'9 8.6
2014-Dec-14 12:33N 18°22' W 064°42'4 1.9
2014-Dec-14 10:33N 18°23' W 064°38'10 9.5
2014-Dec-14 09:33N 18°23' W 064°48'  
Track history (hours):
 
Tides and Currents Weather Stations Pressure Air Temp Water Temp Dewpoint Dewpoint Depression Visibility Wind Speed Wind Dir Waves Ship Positions

Tortola's Pride

Last reported at 2014-Dec-18 14:07 UTC. Time now 2014-Dec-19 01:35 UTC.
Position N 18°25' W 064°36'.

Length 49 m; draft 2.8 m.

Type: Cargo ship. MMSI: 355921000.

Date/timePositionNaut miles runAvg speedWind from/ knotsBaromVisibWave heightAir tempDewpointWater temp
2014-Dec-18 14:07N 18°25' W 064°36'5 8.6
2014-Dec-18 13:33N 18°23' W 064°41'9 9.1
2014-Dec-18 12:34N 18°24' W 064°50'7 0.3
2014-Dec-17 12:20N 18°18' W 064°54'7 9.1
2014-Dec-17 11:34N 18°21' W 064°47'9 9.1
2014-Dec-17 10:33N 18°23' W 064°38'2 0.1
2014-Dec-16 07:33N 18°24' W 064°36'9 8.8
2014-Dec-16 06:34N 18°23' W 064°45'9 9.3
2014-Dec-16 05:34N 18°26' W 064°55'8 0.2
2014-Dec-14 13:33N 18°19' W 064°50'9 8.6
2014-Dec-14 12:33N 18°22' W 064°42'4 1.9
2014-Dec-14 10:33N 18°23' W 064°38'10 9.5
2014-Dec-14 09:33N 18°23' W 064°48'  

Dump ship's entire track history